createdAt,value
2017-03-02T00:00:37.646Z,0
2017-03-02T00:01:19.245Z,0
2017-03-02T00:02:00.961Z,0
2017-03-02T00:02:42.687Z,0
2017-03-02T00:03:24.380Z,0
2017-03-02T00:06:00.745Z,0
2017-03-02T00:06:42.503Z,0
2017-03-02T00:07:24.133Z,0
2017-03-02T00:08:05.646Z,0
2017-03-02T00:08:47.232Z,0
2017-03-02T00:09:29.002Z,0
2017-03-02T00:10:10.547Z,0
2017-03-02T00:10:53.275Z,0
2017-03-02T00:11:35.009Z,0
2017-03-02T00:14:06.192Z,0
2017-03-02T00:14:47.879Z,0
2017-03-02T00:15:29.584Z,0
2017-03-02T00:16:11.304Z,0
2017-03-02T00:16:52.862Z,0
2017-03-02T00:17:34.651Z,0
2017-03-02T00:18:16.313Z,0
2017-03-02T00:20:52.759Z,0
2017-03-02T00:21:34.461Z,0
2017-03-02T00:24:10.992Z,0
2017-03-02T00:26:26.652Z,0
2017-03-02T00:28:47.621Z,0
2017-03-02T00:31:24.338Z,0
2017-03-02T00:32:06.247Z,0
2017-03-02T00:32:47.810Z,0
2017-03-02T00:33:29.888Z,0
2017-03-02T00:34:11.672Z,0
2017-03-02T00:38:53.635Z,0
2017-03-02T00:39:35.359Z,0
2017-03-02T00:40:17.207Z,0
2017-03-02T00:40:58.771Z,0
2017-03-02T00:43:35.343Z,0
2017-03-02T00:44:17.174Z,0
2017-03-02T00:46:59.116Z,0
2017-03-02T00:47:40.899Z,0
2017-03-02T00:48:22.637Z,0
2017-03-02T00:49:04.106Z,0
2017-03-02T00:49:45.712Z,0
2017-03-02T00:50:27.388Z,0
2017-03-02T00:51:09.072Z,0
2017-03-02T00:51:50.510Z,0
2017-03-02T00:52:32.081Z,0
2017-03-02T00:53:13.925Z,0
2017-03-02T00:55:44.969Z,0
2017-03-02T00:58:16.113Z,0
2017-03-02T01:00:57.281Z,0
2017-03-02T01:01:39.132Z,0
2017-03-02T01:04:20.985Z,0
2017-03-02T01:05:02.779Z,0
2017-03-02T01:05:43.985Z,0
2017-03-02T01:06:25.765Z,0
2017-03-02T01:07:07.373Z,0
2017-03-02T01:07:49.186Z,0
2017-03-02T01:08:31.745Z,0
2017-03-02T01:09:13.548Z,0
2017-03-02T01:09:55.047Z,0
2017-03-02T01:12:10.232Z,0
2017-03-02T01:12:51.752Z,0
2017-03-02T01:13:33.603Z,0
2017-03-02T01:14:15.632Z,0
2017-03-02T01:14:57.197Z,0
2017-03-02T01:17:12.641Z,0
2017-03-02T01:19:43.530Z,0
2017-03-02T01:20:25.332Z,0
2017-03-02T01:21:06.770Z,0
2017-03-02T01:21:48.325Z,0
2017-03-02T01:22:30.503Z,0
2017-03-02T01:23:12.320Z,0
2017-03-02T01:23:53.860Z,0
2017-03-02T01:24:35.213Z,0
2017-03-02T01:25:17.106Z,0
2017-03-02T01:25:58.952Z,0
2017-03-02T01:26:41.638Z,0
2017-03-02T01:27:23.414Z,0
2017-03-02T01:28:05.150Z,0
2017-03-02T01:28:46.972Z,0
2017-03-02T01:29:28.819Z,0
2017-03-02T01:30:10.655Z,0
2017-03-02T01:30:52.425Z,0
2017-03-02T01:31:33.913Z,0
2017-03-02T01:32:15.644Z,0
2017-03-02T01:34:57.356Z,0
2017-03-02T01:35:39.271Z,0
2017-03-02T01:36:20.435Z,0
2017-03-02T01:37:02.222Z,0
2017-03-02T01:37:44.130Z,0
2017-03-02T01:38:26.102Z,0
2017-03-02T01:39:07.627Z,0
2017-03-02T01:41:38.842Z,0
2017-03-02T01:42:20.737Z,0
2017-03-02T01:43:02.384Z,0
2017-03-02T01:43:44.043Z,0
2017-03-02T01:44:25.525Z,0
2017-03-02T01:45:07.457Z,0
2017-03-02T01:45:48.966Z,0
2017-03-02T01:46:30.739Z,0
2017-03-02T01:47:12.571Z,0
2017-03-02T01:47:54.540Z,0
2017-03-02T01:50:25.883Z,0
2017-03-02T01:51:07.603Z,0
2017-03-02T01:51:49.506Z,0
2017-03-02T01:52:31.189Z,0
2017-03-02T01:53:12.978Z,0
2017-03-02T01:53:54.523Z,0
2017-03-02T01:54:36.037Z,0
2017-03-02T01:55:17.896Z,0
2017-03-02T01:55:59.565Z,0
2017-03-02T01:58:30.613Z,0
2017-03-02T01:59:12.451Z,0
2017-03-02T02:01:43.505Z,0
2017-03-02T02:02:24.881Z,0
2017-03-02T02:03:06.366Z,0
2017-03-02T02:03:47.894Z,0
2017-03-02T02:04:29.540Z,0
2017-03-02T02:05:11.394Z,0
2017-03-02T02:05:53.064Z,0
2017-03-02T02:06:35.029Z,0
2017-03-02T02:09:11.238Z,0
2017-03-02T02:11:47.798Z,0
2017-03-02T02:12:29.516Z,0
2017-03-02T02:13:10.135Z,0
2017-03-02T02:13:50.735Z,0
2017-03-02T02:14:31.333Z,0
2017-03-02T02:15:11.967Z,0
2017-03-02T02:15:52.618Z,0
2017-03-02T02:16:33.168Z,0
2017-03-02T02:17:13.785Z,0
2017-03-02T02:17:54.372Z,0
2017-03-02T02:18:34.964Z,0
2017-03-02T02:19:15.600Z,0
2017-03-02T02:19:56.284Z,0
2017-03-02T02:20:36.908Z,0
2017-03-02T02:21:17.448Z,0
2017-03-02T02:21:58.016Z,0
2017-03-02T02:22:38.599Z,0
2017-03-02T02:23:19.219Z,0
2017-03-02T02:23:59.931Z,0
2017-03-02T02:24:40.575Z,0
2017-03-02T02:25:21.152Z,0
2017-03-02T02:26:01.681Z,0
2017-03-02T02:26:42.346Z,0
2017-03-02T02:27:22.952Z,0
2017-03-02T02:28:03.546Z,0
2017-03-02T02:28:44.232Z,0
2017-03-02T02:29:24.846Z,0
2017-03-02T02:30:05.380Z,0
2017-03-02T02:30:45.952Z,0
2017-03-02T02:31:26.498Z,0
2017-03-02T02:32:07.102Z,0
2017-03-02T02:32:47.735Z,0
2017-03-02T02:33:28.388Z,0
2017-03-02T02:34:08.995Z,0
2017-03-02T02:34:49.536Z,0
2017-03-02T02:35:30.097Z,0
2017-03-02T02:36:10.711Z,0
2017-03-02T02:36:51.351Z,0
2017-03-02T02:37:32.056Z,0
2017-03-02T02:38:12.713Z,0
2017-03-02T02:38:53.253Z,0
2017-03-02T02:39:33.850Z,0
2017-03-02T02:40:14.390Z,0
2017-03-02T02:40:55.017Z,0
2017-03-02T02:41:35.595Z,0
2017-03-02T02:42:16.167Z,0
2017-03-02T02:42:56.790Z,0
2017-03-02T02:43:37.330Z,0
2017-03-02T02:44:17.905Z,0
2017-03-02T02:44:59.372Z,0
2017-03-02T02:45:39.955Z,0
2017-03-02T02:46:20.599Z,0
2017-03-02T02:47:01.292Z,0
2017-03-02T02:47:41.848Z,0
2017-03-02T02:48:22.479Z,0
2017-03-02T02:49:03.037Z,0
2017-03-02T02:49:43.619Z,0
2017-03-02T02:50:24.243Z,0
2017-03-02T02:51:04.941Z,0
2017-03-02T02:51:45.585Z,0
2017-03-02T02:52:26.123Z,0
2017-03-02T02:53:06.762Z,0
2017-03-02T02:53:47.382Z,0
2017-03-02T02:54:28.760Z,0
2017-03-02T02:55:09.371Z,0
2017-03-02T02:55:49.989Z,0
2017-03-02T02:56:30.613Z,0
2017-03-02T02:57:11.185Z,0
2017-03-02T02:57:51.792Z,0
2017-03-02T02:58:32.387Z,0
2017-03-02T02:59:12.984Z,0
2017-03-02T02:59:53.586Z,0
2017-03-02T03:00:34.141Z,0
2017-03-02T03:01:14.700Z,0
2017-03-02T03:01:55.391Z,0
2017-03-02T03:02:35.978Z,0
2017-03-02T03:03:16.590Z,0
2017-03-02T03:03:57.300Z,0
2017-03-02T03:04:37.932Z,0
2017-03-02T03:05:18.477Z,0
2017-03-02T03:05:59.082Z,0
2017-03-02T03:06:39.694Z,0
2017-03-02T03:07:20.261Z,0
2017-03-02T03:08:00.867Z,0
2017-03-02T03:08:41.498Z,0
2017-03-02T03:09:22.103Z,0
2017-03-02T03:10:02.652Z,0
2017-03-02T03:10:43.268Z,0
2017-03-02T03:11:23.841Z,0
2017-03-02T03:12:04.387Z,0
2017-03-02T03:12:45.108Z,0
2017-03-02T03:13:25.736Z,0
2017-03-02T03:14:06.271Z,0
2017-03-02T03:14:46.862Z,0
2017-03-02T03:15:27.461Z,0
2017-03-02T03:16:08.078Z,0
2017-03-02T03:16:48.613Z,0
2017-03-02T03:17:29.227Z,0
2017-03-02T03:18:09.912Z,0
2017-03-02T03:18:50.454Z,0
2017-03-02T03:19:31.052Z,0
2017-03-02T03:20:11.681Z,0
2017-03-02T03:20:52.309Z,0
2017-03-02T03:21:32.970Z,0
2017-03-02T03:22:13.647Z,0
2017-03-02T03:22:54.187Z,0
2017-03-02T03:23:34.809Z,0
2017-03-02T03:24:15.452Z,0
2017-03-02T03:24:56.066Z,0
2017-03-02T03:25:36.619Z,0
2017-03-02T03:26:17.296Z,0
2017-03-02T03:26:57.861Z,0
2017-03-02T03:27:38.495Z,0
2017-03-02T03:28:19.172Z,0
2017-03-02T03:28:59.739Z,0
2017-03-02T03:29:40.288Z,0
2017-03-02T03:30:21.525Z,0
2017-03-02T03:31:02.064Z,0
2017-03-02T03:31:42.606Z,0
2017-03-02T03:32:23.236Z,0
2017-03-02T03:33:03.852Z,0
2017-03-02T03:33:44.680Z,0
2017-03-02T03:34:25.335Z,0
2017-03-02T03:35:05.973Z,0
2017-03-02T03:35:46.509Z,0
2017-03-02T03:36:27.067Z,0
2017-03-02T03:37:07.693Z,0
2017-03-02T03:37:48.287Z,0
2017-03-02T03:38:28.988Z,0
2017-03-02T03:39:09.637Z,0
2017-03-02T03:39:50.176Z,0
2017-03-02T03:40:30.791Z,0
2017-03-02T03:41:11.395Z,0
2017-03-02T03:41:52.031Z,0
2017-03-02T03:42:32.588Z,0
2017-03-02T03:43:13.171Z,0
2017-03-02T03:43:53.722Z,0
2017-03-02T03:44:34.266Z,0
2017-03-02T03:45:14.950Z,0
2017-03-02T03:45:55.645Z,0
2017-03-02T03:46:36.227Z,0
2017-03-02T03:47:16.901Z,0
2017-03-02T03:47:57.625Z,0
2017-03-02T03:48:44.690Z,0
2017-03-02T03:49:25.253Z,0
2017-03-02T03:50:05.797Z,0
2017-03-02T03:50:46.403Z,0
2017-03-02T03:51:26.950Z,0
2017-03-02T03:52:07.516Z,0
2017-03-02T03:52:48.049Z,0
2017-03-02T03:53:28.591Z,0
2017-03-02T03:54:09.135Z,0
2017-03-02T03:54:49.784Z,0
2017-03-02T03:55:30.271Z,0
2017-03-02T03:56:10.828Z,0
2017-03-02T03:56:51.412Z,0
2017-03-02T03:57:31.960Z,0
2017-03-02T03:58:12.503Z,0
2017-03-02T03:58:53.086Z,0
2017-03-02T03:59:33.678Z,0
2017-03-02T04:00:14.279Z,0
2017-03-02T04:00:54.843Z,0
2017-03-02T04:01:35.465Z,0
2017-03-02T04:02:16.026Z,0
2017-03-02T04:02:56.580Z,0
2017-03-02T04:03:37.122Z,0
2017-03-02T04:04:17.695Z,0
2017-03-02T04:04:58.239Z,0
2017-03-02T04:05:38.783Z,0
2017-03-02T04:06:19.383Z,0
2017-03-02T04:06:59.955Z,0
2017-03-02T04:07:40.550Z,0
2017-03-02T04:08:21.256Z,0
2017-03-02T04:09:01.943Z,0
2017-03-02T04:09:42.490Z,0
2017-03-02T04:10:23.063Z,0
2017-03-02T04:11:03.658Z,0
2017-03-02T04:11:44.230Z,0
2017-03-02T04:12:24.861Z,0
2017-03-02T04:13:05.511Z,0
2017-03-02T04:13:46.047Z,0
2017-03-02T04:14:26.618Z,0
2017-03-02T04:15:07.197Z,0
2017-03-02T04:15:47.780Z,0
2017-03-02T04:16:28.321Z,0
2017-03-02T04:17:08.974Z,0
2017-03-02T04:17:49.573Z,0
2017-03-02T04:18:30.183Z,0
2017-03-02T04:19:10.731Z,0
2017-03-02T04:19:51.310Z,0
2017-03-02T04:20:31.895Z,0
2017-03-02T04:21:12.472Z,0
2017-03-02T04:21:53.057Z,0
2017-03-02T04:22:33.601Z,0
2017-03-02T04:23:14.147Z,0
2017-03-02T04:23:55.600Z,0
2017-03-02T04:24:36.194Z,0
2017-03-02T04:25:17.650Z,0
2017-03-02T04:25:58.220Z,0
2017-03-02T04:26:38.816Z,0
2017-03-02T04:27:19.457Z,0
2017-03-02T04:28:00.124Z,0
2017-03-02T04:28:40.813Z,0
2017-03-02T04:29:21.413Z,0
2017-03-02T04:30:01.943Z,0
2017-03-02T04:30:42.476Z,0
2017-03-02T04:31:23.019Z,0
2017-03-02T04:32:03.574Z,0
2017-03-02T04:32:44.141Z,0
2017-03-02T04:33:24.670Z,0
2017-03-02T04:34:05.214Z,0
2017-03-02T04:34:45.753Z,0
2017-03-02T04:35:26.324Z,0
2017-03-02T04:36:06.873Z,0
2017-03-02T04:36:47.410Z,0
2017-03-02T04:37:27.962Z,0
2017-03-02T04:38:08.534Z,0
2017-03-02T04:38:49.081Z,0
2017-03-02T04:39:29.602Z,0
2017-03-02T04:40:10.149Z,0
2017-03-02T04:40:51.015Z,0
2017-03-02T04:41:31.273Z,0
2017-03-02T04:42:11.844Z,0
2017-03-02T04:42:52.445Z,0
2017-03-02T04:43:33.051Z,0
2017-03-02T04:44:13.633Z,0
2017-03-02T04:44:54.212Z,0
2017-03-02T04:45:34.802Z,0
2017-03-02T04:46:15.345Z,0
2017-03-02T04:46:55.895Z,0
2017-03-02T04:47:36.459Z,0
2017-03-02T04:48:17.100Z,0
2017-03-02T04:48:57.652Z,0
2017-03-02T04:49:38.247Z,0
2017-03-02T04:50:18.857Z,0
2017-03-02T04:50:59.527Z,0
2017-03-02T04:51:40.071Z,0
2017-03-02T04:52:20.645Z,0
2017-03-02T04:53:01.274Z,0
2017-03-02T04:53:42.018Z,0
2017-03-02T04:54:22.562Z,0
2017-03-02T04:55:03.182Z,0
2017-03-02T04:55:43.802Z,0
2017-03-02T04:56:24.424Z,0
2017-03-02T04:57:05.011Z,0
2017-03-02T04:57:45.801Z,0
2017-03-02T04:58:26.348Z,0
2017-03-02T04:59:06.927Z,0
2017-03-02T04:59:47.711Z,0
2017-03-02T05:00:28.360Z,0
2017-03-02T05:01:08.989Z,0
2017-03-02T05:01:49.786Z,0
2017-03-02T05:02:30.451Z,0
2017-03-02T05:03:11.172Z,0
2017-03-02T05:03:51.728Z,0
2017-03-02T05:04:32.587Z,0
2017-03-02T05:05:13.173Z,0
2017-03-02T05:05:53.798Z,0
2017-03-02T05:08:13.201Z,0
2017-03-02T05:08:53.881Z,0
2017-03-02T05:09:34.483Z,0
2017-03-02T05:10:15.234Z,0
2017-03-02T05:10:55.826Z,0
2017-03-02T05:11:36.636Z,0
2017-03-02T05:12:17.193Z,0
2017-03-02T05:12:58.015Z,0
2017-03-02T05:13:38.699Z,0
2017-03-02T05:14:19.358Z,0
2017-03-02T05:14:59.894Z,0
2017-03-02T05:15:40.648Z,0
2017-03-02T05:16:21.268Z,0
2017-03-02T05:17:01.991Z,0
2017-03-02T05:17:42.758Z,0
2017-03-02T05:18:23.499Z,0
2017-03-02T05:19:04.023Z,0
2017-03-02T05:19:45.003Z,0
2017-03-02T05:20:25.537Z,0
2017-03-02T05:21:06.077Z,0
2017-03-02T05:21:46.611Z,0
2017-03-02T05:22:27.152Z,0
2017-03-02T05:23:07.689Z,0
2017-03-02T05:23:48.219Z,0
2017-03-02T05:24:28.765Z,0
2017-03-02T05:25:09.286Z,0
2017-03-02T05:25:49.823Z,0
2017-03-02T05:26:30.358Z,0
2017-03-02T05:27:10.915Z,0
2017-03-02T05:27:51.454Z,0
2017-03-02T05:28:32.000Z,0
2017-03-02T05:29:12.549Z,0
2017-03-02T05:29:53.137Z,0
2017-03-02T05:30:33.670Z,0
2017-03-02T05:31:14.202Z,0
2017-03-02T05:31:54.752Z,0
2017-03-02T05:32:35.290Z,0
2017-03-02T05:33:15.823Z,0
2017-03-02T05:33:56.351Z,0
2017-03-02T05:34:36.882Z,0
2017-03-02T05:35:17.424Z,0
2017-03-02T05:35:57.955Z,0
2017-03-02T05:36:38.495Z,0
2017-03-02T05:37:19.027Z,0
2017-03-02T05:37:59.556Z,0
2017-03-02T05:38:40.092Z,0
2017-03-02T05:39:20.626Z,0
2017-03-02T05:40:01.161Z,0
2017-03-02T05:40:41.706Z,0
2017-03-02T05:41:22.252Z,0
2017-03-02T05:42:02.783Z,0
2017-03-02T05:42:43.305Z,0
2017-03-02T05:43:23.853Z,0
2017-03-02T05:44:04.402Z,0
2017-03-02T05:44:44.932Z,0
2017-03-02T05:45:25.469Z,0
2017-03-02T05:46:06.012Z,0
2017-03-02T05:46:46.579Z,0
2017-03-02T05:47:27.127Z,0
2017-03-02T05:48:07.657Z,0
2017-03-02T05:48:48.196Z,0
2017-03-02T05:49:28.740Z,0
2017-03-02T05:50:09.265Z,0
2017-03-02T05:50:49.809Z,0
2017-03-02T05:51:30.348Z,0
2017-03-02T05:52:10.888Z,0
2017-03-02T05:52:51.429Z,0
2017-03-02T05:53:31.967Z,0
2017-03-02T05:54:12.509Z,0
2017-03-02T05:54:53.043Z,0
2017-03-02T05:55:33.617Z,0
2017-03-02T05:56:14.116Z,0
2017-03-02T05:56:54.656Z,0
2017-03-02T05:57:35.195Z,0
2017-03-02T05:58:15.737Z,0
2017-03-02T05:58:56.281Z,0
2017-03-02T05:59:36.836Z,0
2017-03-02T06:00:17.374Z,0
2017-03-02T06:00:57.920Z,0
2017-03-02T06:01:38.476Z,0
2017-03-02T06:02:19.020Z,0
2017-03-02T06:02:59.552Z,0
2017-03-02T06:03:40.075Z,0
2017-03-02T06:04:20.617Z,0
2017-03-02T06:05:01.153Z,0
2017-03-02T06:07:11.090Z,0
2017-03-02T06:07:51.629Z,0
2017-03-02T06:08:32.173Z,0
2017-03-02T06:09:12.716Z,0
2017-03-02T06:09:53.255Z,0
2017-03-02T06:10:33.793Z,5
2017-03-02T06:11:14.317Z,5
2017-03-02T06:11:54.855Z,5
2017-03-02T06:12:35.392Z,5
2017-03-02T06:13:15.935Z,5
2017-03-02T06:13:56.481Z,5
2017-03-02T06:14:37.024Z,5
2017-03-02T06:15:17.571Z,5
2017-03-02T06:15:58.107Z,5
2017-03-02T06:16:38.658Z,5
2017-03-02T06:17:19.193Z,5
2017-03-02T06:17:59.726Z,10
2017-03-02T06:18:40.259Z,10
2017-03-02T06:19:20.794Z,10
2017-03-02T06:20:01.350Z,10
2017-03-02T06:20:41.892Z,10
2017-03-02T06:21:22.463Z,10
2017-03-02T06:22:02.999Z,10
2017-03-02T06:22:43.545Z,10
2017-03-02T06:23:24.091Z,10
2017-03-02T06:24:04.665Z,15
2017-03-02T06:24:45.195Z,15
2017-03-02T06:25:25.744Z,15
2017-03-02T06:26:06.297Z,15
2017-03-02T06:26:46.838Z,15
2017-03-02T06:27:27.370Z,15
2017-03-02T06:28:07.912Z,20
2017-03-02T06:28:48.443Z,20
2017-03-02T06:29:28.978Z,20
2017-03-02T06:30:09.519Z,20
2017-03-02T06:30:50.052Z,20
2017-03-02T06:31:30.597Z,20
2017-03-02T06:32:11.130Z,25
2017-03-02T06:32:51.676Z,25
2017-03-02T06:33:32.225Z,25
2017-03-02T06:34:12.752Z,25
2017-03-02T06:34:53.293Z,25
2017-03-02T06:35:33.829Z,25
2017-03-02T06:36:14.363Z,25
2017-03-02T06:36:54.904Z,25
2017-03-02T06:37:35.448Z,30
2017-03-02T06:38:15.984Z,30
2017-03-02T06:38:56.559Z,30
2017-03-02T06:39:37.099Z,30
2017-03-02T06:40:17.643Z,35
2017-03-02T06:40:58.183Z,35
2017-03-02T06:41:38.705Z,35
2017-03-02T06:42:19.247Z,35
2017-03-02T06:42:59.782Z,35
2017-03-02T06:43:40.313Z,35
2017-03-02T06:44:20.843Z,35
2017-03-02T06:45:01.385Z,40
2017-03-02T06:45:41.938Z,40
2017-03-02T06:46:22.518Z,40
2017-03-02T06:47:03.258Z,40
2017-03-02T06:47:44.127Z,45
2017-03-02T06:48:24.667Z,45
2017-03-02T06:49:05.203Z,50
2017-03-02T06:49:45.744Z,60
2017-03-02T06:50:26.273Z,65
2017-03-02T06:51:06.817Z,60
2017-03-02T06:51:47.339Z,55
2017-03-02T06:52:27.898Z,50
2017-03-02T06:53:08.439Z,50
2017-03-02T06:53:48.993Z,50
2017-03-02T06:54:29.537Z,50
2017-03-02T06:55:10.129Z,60
2017-03-02T06:55:50.675Z,60
2017-03-02T06:56:31.231Z,55
2017-03-02T06:57:11.780Z,50
2017-03-02T06:57:52.327Z,55
2017-03-02T06:58:32.865Z,55
2017-03-02T06:59:13.410Z,70
2017-03-02T06:59:53.983Z,80
2017-03-02T07:00:34.524Z,80
2017-03-02T07:01:15.064Z,65
2017-03-02T07:01:55.599Z,60
2017-03-02T07:02:36.145Z,65
2017-03-02T07:03:16.678Z,60
2017-03-02T07:03:57.218Z,50
2017-03-02T07:04:37.740Z,40
2017-03-02T07:05:18.269Z,50
2017-03-02T07:05:58.811Z,50
2017-03-02T07:06:39.360Z,55
2017-03-02T07:07:19.901Z,65
2017-03-02T07:08:00.443Z,70
2017-03-02T07:08:40.975Z,70
2017-03-02T07:09:21.540Z,70
2017-03-02T07:10:02.077Z,70
2017-03-02T07:10:42.618Z,70
2017-03-02T07:11:23.146Z,75
2017-03-02T07:12:03.687Z,80
2017-03-02T07:12:44.225Z,75
2017-03-02T07:13:24.766Z,65
2017-03-02T07:14:05.318Z,65
2017-03-02T07:14:45.858Z,70
2017-03-02T07:15:26.391Z,75
2017-03-02T07:16:06.930Z,85
2017-03-02T07:16:47.457Z,95
2017-03-02T07:17:28.010Z,95
2017-03-02T07:18:08.549Z,85
2017-03-02T07:18:49.090Z,75
2017-03-02T07:19:29.631Z,80
2017-03-02T07:20:10.166Z,90
2017-03-02T07:20:50.713Z,85
2017-03-02T07:21:31.261Z,85
2017-03-02T07:22:11.797Z,90
2017-03-02T07:22:52.336Z,100
2017-03-02T07:23:32.886Z,135
2017-03-02T07:24:13.410Z,135
2017-03-02T07:24:53.958Z,100
2017-03-02T07:25:34.503Z,80
2017-03-02T07:26:15.089Z,75
2017-03-02T07:26:55.617Z,90
2017-03-02T07:27:36.158Z,115
2017-03-02T07:28:16.705Z,100
2017-03-02T07:28:57.241Z,90
2017-03-02T07:29:37.773Z,95
2017-03-02T07:30:18.318Z,120
2017-03-02T07:30:58.857Z,120
2017-03-02T07:31:39.395Z,135
2017-03-02T07:32:19.944Z,135
2017-03-02T07:33:00.465Z,115
2017-03-02T07:33:41.002Z,105
2017-03-02T07:34:21.538Z,130
2017-03-02T07:35:02.078Z,125
2017-03-02T07:35:42.623Z,110
2017-03-02T07:36:23.160Z,135
2017-03-02T07:37:03.715Z,115
2017-03-02T07:37:44.250Z,115
2017-03-02T07:38:24.801Z,120
2017-03-02T07:39:05.338Z,120
2017-03-02T07:39:45.868Z,120
2017-03-02T07:40:26.410Z,120
2017-03-02T07:41:06.949Z,105
2017-03-02T07:41:47.489Z,115
2017-03-02T07:42:28.030Z,135
2017-03-02T07:43:08.586Z,170
2017-03-02T07:43:49.132Z,140
2017-03-02T07:44:29.681Z,125
2017-03-02T07:45:10.221Z,110
2017-03-02T07:45:50.757Z,115
2017-03-02T07:46:31.316Z,130
2017-03-02T07:47:11.840Z,145
2017-03-02T07:47:52.378Z,160
2017-03-02T07:48:32.913Z,140
2017-03-02T07:49:13.453Z,120
2017-03-02T07:49:54.017Z,120
2017-03-02T07:50:34.551Z,115
2017-03-02T07:51:15.097Z,125
2017-03-02T07:51:55.637Z,145
2017-03-02T07:52:36.166Z,125
2017-03-02T07:53:16.728Z,140
2017-03-02T07:53:57.241Z,140
2017-03-02T07:54:37.779Z,120
2017-03-02T07:55:18.313Z,120
2017-03-02T07:55:58.846Z,115
2017-03-02T07:56:39.392Z,140
2017-03-02T07:57:19.942Z,120
2017-03-02T07:58:00.469Z,110
2017-03-02T07:58:40.995Z,120
2017-03-02T07:59:21.536Z,145
2017-03-02T08:00:02.066Z,160
2017-03-02T08:00:42.606Z,175
2017-03-02T08:01:23.147Z,190
2017-03-02T08:02:03.676Z,175
2017-03-02T08:02:44.221Z,170
2017-03-02T08:03:24.771Z,165
2017-03-02T08:04:05.360Z,185
2017-03-02T08:04:45.922Z,185
2017-03-02T08:05:26.465Z,180
2017-03-02T08:06:07.008Z,170
2017-03-02T08:06:47.554Z,145
2017-03-02T08:07:28.115Z,155
2017-03-02T08:08:08.656Z,200
2017-03-02T08:08:49.205Z,190
2017-03-02T08:09:29.748Z,150
2017-03-02T08:10:10.281Z,180
2017-03-02T08:10:50.808Z,185
2017-03-02T08:11:31.346Z,165
2017-03-02T08:12:11.876Z,160
2017-03-02T08:12:52.419Z,185
2017-03-02T08:13:32.960Z,210
2017-03-02T08:14:13.500Z,195
2017-03-02T08:14:54.037Z,170
2017-03-02T08:15:34.561Z,150
2017-03-02T08:16:15.101Z,180
2017-03-02T08:16:55.634Z,295
2017-03-02T08:17:36.166Z,305
2017-03-02T08:18:16.714Z,255
2017-03-02T08:18:57.253Z,215
2017-03-02T08:19:37.794Z,180
2017-03-02T08:20:18.329Z,190
2017-03-02T08:20:58.867Z,210
2017-03-02T08:21:39.408Z,205
2017-03-02T08:22:19.938Z,175
2017-03-02T08:23:00.476Z,180
2017-03-02T08:23:41.018Z,205
2017-03-02T08:24:21.558Z,150
2017-03-02T08:25:02.098Z,125
2017-03-02T08:25:42.644Z,145
2017-03-02T08:26:23.165Z,150
2017-03-02T08:27:03.694Z,155
2017-03-02T08:27:44.236Z,160
2017-03-02T08:28:24.784Z,205
2017-03-02T08:29:05.332Z,245
2017-03-02T08:29:45.874Z,255
2017-03-02T08:30:26.408Z,255
2017-03-02T08:31:06.953Z,305
2017-03-02T08:31:47.480Z,270
2017-03-02T08:32:28.015Z,215
2017-03-02T08:33:08.548Z,170
2017-03-02T08:33:49.079Z,155
2017-03-02T08:34:29.622Z,165
2017-03-02T08:35:10.153Z,185
2017-03-02T08:35:50.678Z,220
2017-03-02T08:36:31.213Z,210
2017-03-02T08:37:11.752Z,260
2017-03-02T08:37:52.295Z,295
2017-03-02T08:38:32.833Z,245
2017-03-02T08:39:13.380Z,220
2017-03-02T08:39:53.918Z,210
2017-03-02T08:40:34.457Z,205
2017-03-02T08:41:15.006Z,200
2017-03-02T08:41:55.536Z,260
2017-03-02T08:42:36.087Z,245
2017-03-02T08:43:16.626Z,240
2017-03-02T08:43:57.156Z,235
2017-03-02T08:44:37.698Z,280
2017-03-02T08:45:18.240Z,335
2017-03-02T08:45:58.799Z,315
2017-03-02T08:46:39.342Z,170
2017-03-02T08:47:19.891Z,165
2017-03-02T08:48:00.453Z,185
2017-03-02T08:48:41.000Z,235
2017-03-02T08:49:21.541Z,240
2017-03-02T08:50:02.085Z,235
2017-03-02T08:50:42.625Z,290
2017-03-02T08:51:23.167Z,305
2017-03-02T08:52:03.695Z,280
2017-03-02T08:52:44.238Z,280
2017-03-02T08:53:24.782Z,300
2017-03-02T08:54:05.322Z,295
2017-03-02T08:54:45.860Z,305
2017-03-02T08:55:26.401Z,300
2017-03-02T08:56:06.951Z,335
2017-03-02T08:56:47.498Z,340
2017-03-02T08:57:28.038Z,320
2017-03-02T08:58:08.587Z,340
2017-03-02T08:58:49.152Z,320
2017-03-02T08:59:29.677Z,290
2017-03-02T09:00:10.226Z,325
2017-03-02T09:00:50.777Z,310
2017-03-02T09:01:31.322Z,270
2017-03-02T09:02:11.849Z,310
2017-03-02T09:02:52.394Z,320
2017-03-02T09:03:32.935Z,350
2017-03-02T09:04:13.480Z,265
2017-03-02T09:04:54.022Z,260
2017-03-02T09:05:34.572Z,280
2017-03-02T09:06:15.125Z,325
2017-03-02T09:06:55.703Z,330
2017-03-02T09:07:36.233Z,305
2017-03-02T09:08:16.775Z,360
2017-03-02T09:08:57.327Z,480
2017-03-02T09:09:37.869Z,380
2017-03-02T09:10:18.419Z,305
2017-03-02T09:10:58.979Z,215
2017-03-02T09:11:39.527Z,220
2017-03-02T09:12:20.080Z,300
2017-03-02T09:13:00.621Z,330
2017-03-02T09:13:41.168Z,320
2017-03-02T09:14:21.707Z,340
2017-03-02T09:15:02.252Z,350
2017-03-02T09:15:42.794Z,320
2017-03-02T09:16:23.337Z,340
2017-03-02T09:17:03.872Z,410
2017-03-02T09:17:44.412Z,320
2017-03-02T09:18:25.007Z,305
2017-03-02T09:19:05.550Z,250
2017-03-02T09:19:46.074Z,270
2017-03-02T09:20:26.618Z,230
2017-03-02T09:21:07.161Z,220
2017-03-02T09:21:47.698Z,290
2017-03-02T09:22:28.243Z,275
2017-03-02T09:23:08.788Z,250
2017-03-02T09:23:49.329Z,260
2017-03-02T09:24:29.871Z,255
2017-03-02T09:25:10.419Z,260
2017-03-02T09:25:50.959Z,660
2017-03-02T09:26:31.508Z,335
2017-03-02T09:27:12.056Z,185
2017-03-02T09:27:52.584Z,160
2017-03-02T09:28:33.127Z,190
2017-03-02T09:29:13.675Z,205
2017-03-02T09:29:54.212Z,260
2017-03-02T09:30:34.758Z,265
2017-03-02T09:31:15.302Z,275
2017-03-02T09:31:55.839Z,340
2017-03-02T09:32:36.388Z,405
2017-03-02T09:33:16.927Z,295
2017-03-02T09:33:57.468Z,225
2017-03-02T09:34:37.990Z,230
2017-03-02T09:35:18.525Z,230
2017-03-02T09:35:59.070Z,190
2017-03-02T09:36:39.597Z,170
2017-03-02T09:37:20.157Z,180
2017-03-02T09:38:00.705Z,205
2017-03-02T09:38:41.255Z,190
2017-03-02T09:39:21.795Z,190
2017-03-02T09:40:02.319Z,190
2017-03-02T09:40:42.846Z,210
2017-03-02T09:41:23.385Z,215
2017-03-02T09:42:03.920Z,195
2017-03-02T09:42:44.462Z,220
2017-03-02T09:43:25.009Z,215
2017-03-02T09:44:05.551Z,240
2017-03-02T09:44:46.100Z,285
2017-03-02T09:45:26.644Z,300
2017-03-02T09:46:07.188Z,310
2017-03-02T09:46:47.728Z,345
2017-03-02T09:47:28.278Z,345
2017-03-02T09:48:08.827Z,315
2017-03-02T09:48:49.353Z,305
2017-03-02T09:49:29.907Z,350
2017-03-02T09:50:10.446Z,330
2017-03-02T09:50:50.979Z,225
2017-03-02T09:51:31.517Z,190
2017-03-02T09:52:12.067Z,205
2017-03-02T09:52:52.620Z,215
2017-03-02T09:53:33.162Z,245
2017-03-02T09:54:13.709Z,230
2017-03-02T09:54:54.246Z,325
2017-03-02T09:55:34.785Z,230
2017-03-02T09:56:15.311Z,260
2017-03-02T09:56:55.852Z,215
2017-03-02T09:57:36.385Z,200
2017-03-02T09:58:16.925Z,215
2017-03-02T09:58:57.475Z,235
2017-03-02T09:59:38.024Z,255
2017-03-02T10:00:18.563Z,235
2017-03-02T10:00:59.106Z,210
2017-03-02T10:01:39.642Z,175
2017-03-02T10:02:20.192Z,240
2017-03-02T10:03:00.740Z,300
2017-03-02T10:03:41.275Z,265
2017-03-02T10:04:21.820Z,285
2017-03-02T10:05:02.361Z,250
2017-03-02T10:05:42.907Z,245
2017-03-02T10:06:23.444Z,215
2017-03-02T10:07:03.995Z,230
2017-03-02T10:07:44.534Z,245
2017-03-02T10:08:25.073Z,240
2017-03-02T10:09:05.611Z,240
2017-03-02T10:09:46.162Z,265
2017-03-02T10:10:26.705Z,270
2017-03-02T10:11:07.250Z,235
2017-03-02T10:11:47.813Z,220
2017-03-02T10:12:28.351Z,180
2017-03-02T10:13:08.883Z,180
2017-03-02T10:13:49.423Z,210
2017-03-02T10:14:29.969Z,220
2017-03-02T10:15:10.503Z,250
2017-03-02T10:15:51.045Z,420
2017-03-02T10:16:31.582Z,300
2017-03-02T10:17:12.126Z,315
2017-03-02T10:17:52.672Z,285
2017-03-02T10:18:33.215Z,235
2017-03-02T10:19:13.751Z,230
2017-03-02T10:19:54.280Z,245
2017-03-02T10:20:34.816Z,245
2017-03-02T10:21:15.357Z,290
2017-03-02T10:21:55.898Z,275
2017-03-02T10:22:36.448Z,210
2017-03-02T10:23:16.993Z,180
2017-03-02T10:23:57.539Z,175
2017-03-02T10:24:38.087Z,180
2017-03-02T10:25:18.625Z,165
2017-03-02T10:25:59.165Z,165
2017-03-02T10:26:39.694Z,160
2017-03-02T10:27:20.236Z,230
2017-03-02T10:28:00.784Z,275
2017-03-02T10:28:41.324Z,240
2017-03-02T10:29:21.866Z,245
2017-03-02T10:30:02.401Z,255
2017-03-02T10:30:42.949Z,220
2017-03-02T10:31:23.495Z,230
2017-03-02T10:32:04.028Z,260
2017-03-02T10:32:44.573Z,270
2017-03-02T10:33:25.122Z,240
2017-03-02T10:34:05.667Z,225
2017-03-02T10:34:46.201Z,1365
2017-03-02T10:35:26.744Z,215